createdAt,value
2023-01-21T00:00:27.160Z,-1.66
2023-01-21T00:01:27.342Z,-1.64
2023-01-21T00:02:27.154Z,-1.67
2023-01-21T00:03:27.142Z,-1.69
2023-01-21T00:04:27.305Z,-1.70
2023-01-21T00:05:27.110Z,-1.73
2023-01-21T00:06:27.092Z,-1.74
2023-01-21T00:07:27.098Z,-1.77
2023-01-21T00:08:27.083Z,-1.77
2023-01-21T00:09:27.248Z,-1.79
2023-01-21T00:10:27.033Z,-1.82
2023-01-21T00:11:27.032Z,-1.82
2023-01-21T00:12:27.024Z,-1.84
2023-01-21T00:13:27.011Z,-1.87
2023-01-21T00:14:27.001Z,-1.88
2023-01-21T00:15:27.039Z,-1.90
2023-01-21T00:16:26.961Z,-1.90
2023-01-21T00:17:26.968Z,-1.91
2023-01-21T00:18:28.253Z,-1.90
2023-01-21T00:19:27.121Z,-1.91
2023-01-21T00:20:26.914Z,-1.91
2023-01-21T00:21:26.920Z,-1.92
2023-01-21T00:22:26.894Z,-1.92
2023-01-21T00:23:26.884Z,-1.95
2023-01-21T00:24:27.882Z,-1.94
2023-01-21T00:25:26.852Z,-1.91
2023-01-21T00:26:26.850Z,-1.91
2023-01-21T00:27:26.840Z,-1.90
2023-01-21T00:28:26.816Z,-1.90
2023-01-21T00:29:27.017Z,-1.88
2023-01-21T00:30:26.795Z,-1.85
2023-01-21T00:31:26.826Z,-1.85
2023-01-21T00:32:26.784Z,-1.85
2023-01-21T00:33:26.756Z,-1.87
2023-01-21T00:34:26.753Z,-1.88
2023-01-21T00:35:26.735Z,-1.90
2023-01-21T00:36:26.727Z,-1.88
2023-01-21T00:37:26.718Z,-1.90
2023-01-21T00:38:26.697Z,-1.90
2023-01-21T00:39:26.675Z,-1.90
2023-01-21T00:40:26.664Z,-1.90
2023-01-21T00:41:26.673Z,-1.91
2023-01-21T00:42:26.643Z,-1.91
2023-01-21T00:43:26.635Z,-1.92
2023-01-21T00:44:26.614Z,-1.91
2023-01-21T00:45:26.612Z,-1.94
2023-01-21T00:46:26.646Z,-1.94
2023-01-21T00:47:26.766Z,-1.95
2023-01-21T00:48:26.568Z,-1.97
2023-01-21T00:49:26.561Z,-1.98
2023-01-21T00:50:26.566Z,-1.98
2023-01-21T00:51:26.588Z,-2.00
2023-01-21T00:52:26.702Z,-2.02
2023-01-21T00:53:26.511Z,-2.03
2023-01-21T00:54:26.504Z,-2.05
2023-01-21T00:55:26.483Z,-2.06
2023-01-21T00:56:26.461Z,-2.06
2023-01-21T00:57:26.630Z,-2.06
2023-01-21T00:58:26.620Z,-2.09
2023-01-21T00:59:26.430Z,-2.10
2023-01-21T01:00:26.412Z,-2.10
2023-01-21T01:01:26.482Z,-2.09
2023-01-21T01:02:26.415Z,-2.10
2023-01-21T01:03:26.556Z,-2.12
2023-01-21T01:04:26.373Z,-2.12
2023-01-21T01:05:26.357Z,-2.13
2023-01-21T01:06:26.337Z,-2.13
2023-01-21T01:07:26.327Z,-2.15
2023-01-21T01:08:26.499Z,-2.15
2023-01-21T01:09:26.309Z,-2.16
2023-01-21T01:10:26.285Z,-2.16
2023-01-21T01:11:26.276Z,-2.16
2023-01-21T01:12:26.264Z,-2.16
2023-01-21T01:13:26.254Z,-2.15
2023-01-21T01:14:26.406Z,-2.15
2023-01-21T01:15:26.707Z,-2.15
2023-01-21T01:16:26.217Z,-2.15
2023-01-21T01:17:26.203Z,-2.15
2023-01-21T01:18:26.195Z,-2.16
2023-01-21T01:19:26.185Z,-2.15
2023-01-21T01:20:26.153Z,-2.16
2023-01-21T01:21:26.174Z,-2.18
2023-01-21T01:22:26.142Z,-2.20
2023-01-21T01:23:26.132Z,-2.16
2023-01-21T01:24:26.131Z,-2.20
2023-01-21T01:25:26.112Z,-2.21
2023-01-21T01:26:26.102Z,-2.21
2023-01-21T01:27:26.272Z,-2.21
2023-01-21T01:28:26.250Z,-2.23
2023-01-21T01:29:26.064Z,-2.21
2023-01-21T01:30:26.067Z,-2.23
2023-01-21T01:31:26.104Z,-2.20
2023-01-21T01:32:26.018Z,-2.18
2023-01-21T01:33:26.191Z,-2.18
2023-01-21T01:34:25.991Z,-2.16
2023-01-21T01:35:25.983Z,-2.16
2023-01-21T01:36:25.959Z,-2.18
2023-01-21T01:37:25.959Z,-2.18
2023-01-21T01:38:26.097Z,-2.16
2023-01-21T01:39:25.934Z,-2.13
2023-01-21T01:40:25.909Z,-2.10
2023-01-21T01:41:26.092Z,-2.09
2023-01-21T01:42:25.887Z,-2.08
2023-01-21T01:43:25.889Z,-2.08
2023-01-21T01:44:25.869Z,-2.08
2023-01-21T01:45:25.861Z,-2.06
2023-01-21T01:46:26.087Z,-2.06
2023-01-21T01:47:25.834Z,-2.06
2023-01-21T01:48:25.813Z,-2.08
2023-01-21T01:49:25.815Z,-2.09
2023-01-21T01:50:25.799Z,-2.08
2023-01-21T01:51:25.819Z,-2.08
2023-01-21T01:52:25.756Z,-2.08
2023-01-21T01:53:25.928Z,-2.06
2023-01-21T01:54:25.738Z,-2.09
2023-01-21T01:55:25.737Z,-2.08
2023-01-21T01:56:25.713Z,-2.08
2023-01-21T01:57:25.716Z,-2.08
2023-01-21T01:58:25.891Z,-2.06
2023-01-21T01:59:25.674Z,-2.06
2023-01-21T02:00:25.665Z,-2.06
2023-01-21T02:01:25.717Z,-2.06
2023-01-21T02:02:25.633Z,-2.05
2023-01-21T02:03:25.633Z,-2.05
2023-01-21T02:04:25.622Z,-2.06
2023-01-21T02:05:25.592Z,-2.03
2023-01-21T02:06:25.599Z,-2.03
2023-01-21T02:07:25.751Z,-2.03
2023-01-21T02:08:25.744Z,-2.05
2023-01-21T02:09:25.552Z,-2.08
2023-01-21T02:10:25.549Z,-2.08
2023-01-21T02:11:25.528Z,-2.10
2023-01-21T02:12:25.700Z,-2.09
2023-01-21T02:13:25.669Z,-2.10
2023-01-21T02:14:25.489Z,-2.10
2023-01-21T02:15:25.480Z,-2.10
2023-01-21T02:16:25.502Z,-2.09
2023-01-21T02:17:25.451Z,-2.09
2023-01-21T02:18:25.611Z,-2.10
2023-01-21T02:19:25.436Z,-2.12
2023-01-21T02:20:25.424Z,-2.12
2023-01-21T02:21:25.570Z,-2.12
2023-01-21T02:22:25.397Z,-2.13
2023-01-21T02:23:25.546Z,-2.16
2023-01-21T02:24:25.376Z,-2.18
2023-01-21T02:25:25.347Z,-2.18
2023-01-21T02:26:25.516Z,-2.18
2023-01-21T02:27:30.776Z,-2.20
2023-01-21T02:28:26.485Z,-2.21
2023-01-21T02:29:25.295Z,-2.20
2023-01-21T02:30:25.294Z,-2.21
2023-01-21T02:31:25.351Z,-2.21
2023-01-21T02:32:25.276Z,-2.20
2023-01-21T02:33:25.423Z,-2.18
2023-01-21T02:34:25.241Z,-2.20
2023-01-21T02:35:25.244Z,-2.16
2023-01-21T02:36:25.226Z,-2.18
2023-01-21T02:37:25.207Z,-2.20
2023-01-21T02:38:25.362Z,-2.21
2023-01-21T02:39:25.200Z,-2.21
2023-01-21T02:40:25.172Z,-2.23
2023-01-21T02:41:25.336Z,-2.23
2023-01-21T02:42:25.131Z,-2.24
2023-01-21T02:43:25.131Z,-2.24
2023-01-21T02:44:25.115Z,-2.24
2023-01-21T02:45:25.123Z,-2.24
2023-01-21T02:46:25.278Z,-2.26
2023-01-21T02:47:25.074Z,-2.24
2023-01-21T02:48:25.060Z,-2.26
2023-01-21T02:49:25.238Z,-2.26
2023-01-21T02:50:25.041Z,-2.24
2023-01-21T02:51:25.049Z,-2.24
2023-01-21T02:52:25.007Z,-2.23
2023-01-21T02:53:25.024Z,-2.23
2023-01-21T02:54:25.159Z,-2.23
2023-01-21T02:55:24.979Z,-2.24
2023-01-21T02:56:24.956Z,-2.24
2023-01-21T02:57:24.980Z,-2.24
2023-01-21T02:58:24.936Z,-2.24
2023-01-21T02:59:25.108Z,-2.26
2023-01-21T03:00:25.126Z,-2.23
2023-01-21T03:01:24.896Z,-2.24
2023-01-21T03:02:24.887Z,-2.23
2023-01-21T03:03:24.881Z,-2.23
2023-01-21T03:04:24.862Z,-2.24
2023-01-21T03:05:25.022Z,-2.24
2023-01-21T03:06:25.024Z,-2.24
2023-01-21T03:07:24.838Z,-2.24
2023-01-21T03:08:24.803Z,-2.24
2023-01-21T03:09:24.812Z,-2.26
2023-01-21T03:10:25.103Z,-2.29
2023-01-21T03:11:24.774Z,-2.29
2023-01-21T03:12:24.768Z,-2.30
2023-01-21T03:13:24.753Z,-2.32
2023-01-21T03:14:24.747Z,-2.34
2023-01-21T03:15:25.036Z,-2.35
2023-01-21T03:16:24.788Z,-2.37
2023-01-21T03:17:24.703Z,-2.37
2023-01-21T03:18:24.708Z,-2.37
2023-01-21T03:19:24.671Z,-2.39
2023-01-21T03:20:24.673Z,-2.40
2023-01-21T03:21:24.810Z,-2.42
2023-01-21T03:22:24.640Z,-2.43
2023-01-21T03:23:24.620Z,-2.43
2023-01-21T03:24:24.620Z,-2.43
2023-01-21T03:25:24.591Z,-2.43
2023-01-21T03:26:24.772Z,-2.45
2023-01-21T03:27:24.589Z,-2.46
2023-01-21T03:28:24.561Z,-2.45
2023-01-21T03:29:24.548Z,-2.48
2023-01-21T03:30:24.550Z,-2.48
2023-01-21T03:31:24.698Z,-2.49
2023-01-21T03:32:24.517Z,-2.52
2023-01-21T03:33:24.507Z,-2.50
2023-01-21T03:34:24.491Z,-2.50
2023-01-21T03:35:24.479Z,-2.50
2023-01-21T03:36:24.639Z,-2.52
2023-01-21T03:37:24.649Z,-2.52
2023-01-21T03:38:24.438Z,-2.49
2023-01-21T03:39:24.420Z,-2.50
2023-01-21T03:40:24.415Z,-2.52
2023-01-21T03:41:24.405Z,-2.53
2023-01-21T03:42:24.573Z,-2.55
2023-01-21T03:43:24.373Z,-2.56
2023-01-21T03:44:24.365Z,-2.58
2023-01-21T03:45:24.413Z,-2.60
2023-01-21T03:46:24.345Z,-2.63
2023-01-21T03:47:24.510Z,-2.66
2023-01-21T03:48:24.485Z,-2.67
2023-01-21T03:49:24.301Z,-2.70
2023-01-21T03:50:24.297Z,-2.70
2023-01-21T03:51:24.304Z,-2.73
2023-01-21T03:52:24.262Z,-2.74
2023-01-21T03:53:24.435Z,-2.77
2023-01-21T03:54:24.239Z,-2.77
2023-01-21T03:55:24.392Z,-2.78
2023-01-21T03:56:24.207Z,-2.78
2023-01-21T03:57:24.201Z,-2.79
2023-01-21T03:58:24.193Z,-2.79
2023-01-21T03:59:24.179Z,-2.81
2023-01-21T04:00:24.189Z,-2.82
2023-01-21T04:01:24.140Z,-2.84
2023-01-21T04:02:24.166Z,-2.84
2023-01-21T04:03:24.116Z,-2.85
2023-01-21T04:04:24.291Z,-2.86
2023-01-21T04:05:24.279Z,-2.86
2023-01-21T04:06:24.089Z,-2.89
2023-01-21T04:07:24.078Z,-2.89
2023-01-21T04:08:24.065Z,-2.91
2023-01-21T04:09:24.057Z,-2.91
2023-01-21T04:10:24.229Z,-2.92
2023-01-21T04:11:24.032Z,-2.94
2023-01-21T04:12:24.199Z,-2.97
2023-01-21T04:13:23.996Z,-2.99
2023-01-21T04:14:24.158Z,-3.00
2023-01-21T04:15:23.967Z,-3.00
2023-01-21T04:16:24.003Z,-3.00
2023-01-21T04:17:24.126Z,-3.03
2023-01-21T04:18:23.946Z,-3.02
2023-01-21T04:19:24.095Z,-3.05
2023-01-21T04:20:24.095Z,-3.05
2023-01-21T04:21:23.893Z,-3.06
2023-01-21T04:22:23.894Z,-3.07
2023-01-21T04:23:23.891Z,-3.07
2023-01-21T04:24:23.894Z,-3.09
2023-01-21T04:25:24.022Z,-3.09
2023-01-21T04:26:23.872Z,-3.10
2023-01-21T04:27:23.837Z,-3.10
2023-01-21T04:28:23.864Z,-3.14
2023-01-21T04:29:23.972Z,-3.12
2023-01-21T04:30:23.853Z,-3.14
2023-01-21T04:31:23.804Z,-3.14
2023-01-21T04:32:23.774Z,-3.14
2023-01-21T04:33:23.750Z,-3.15
2023-01-21T04:34:23.906Z,-3.14
2023-01-21T04:35:23.724Z,-3.14
2023-01-21T04:36:23.727Z,-3.12
2023-01-21T04:37:23.702Z,-3.15
2023-01-21T04:38:23.865Z,-3.14
2023-01-21T04:39:23.679Z,-3.15
2023-01-21T04:40:23.678Z,-3.17
2023-01-21T04:41:25.455Z,-3.17
2023-01-21T04:42:23.892Z,-3.20
2023-01-21T04:43:23.617Z,-3.21
2023-01-21T04:44:23.607Z,-3.23
2023-01-21T04:45:23.587Z,-3.23
2023-01-21T04:46:23.591Z,-3.24
2023-01-21T04:47:23.756Z,-3.24
2023-01-21T04:48:23.770Z,-3.25
2023-01-21T04:49:23.544Z,-3.25
2023-01-21T04:50:23.549Z,-3.27
2023-01-21T04:51:23.705Z,-3.25
2023-01-21T04:52:23.520Z,-3.27
2023-01-21T04:53:23.510Z,-3.30
2023-01-21T04:54:23.484Z,-3.33
2023-01-21T04:55:26.130Z,-3.35
2023-01-21T04:56:23.643Z,-3.36
2023-01-21T04:57:23.631Z,-3.38
2023-01-21T04:58:23.615Z,-3.38
2023-01-21T04:59:23.424Z,-3.39
2023-01-21T05:00:23.436Z,-3.41
2023-01-21T05:01:23.453Z,-3.39
2023-01-21T05:02:23.577Z,-3.42
2023-01-21T05:03:23.637Z,-3.43
2023-01-21T05:04:23.384Z,-3.45
2023-01-21T05:05:23.349Z,-3.45
2023-01-21T05:06:23.330Z,-3.45
2023-01-21T05:07:23.337Z,-3.45
2023-01-21T05:08:23.601Z,-3.45
2023-01-21T05:09:23.494Z,-3.45
2023-01-21T05:10:23.290Z,-3.48
2023-01-21T05:11:23.278Z,-3.49
2023-01-21T05:12:23.271Z,-3.48
2023-01-21T05:13:23.245Z,-3.52
2023-01-21T05:14:23.262Z,-3.52
2023-01-21T05:15:23.219Z,-3.49
2023-01-21T05:16:23.308Z,-3.49
2023-01-21T05:17:23.198Z,-3.49
2023-01-21T05:18:23.194Z,-3.49
2023-01-21T05:19:23.352Z,-3.52
2023-01-21T05:20:23.157Z,-3.52
2023-01-21T05:21:23.336Z,-3.53
2023-01-21T05:22:23.136Z,-3.52
2023-01-21T05:23:23.136Z,-3.52
2023-01-21T05:24:23.301Z,-3.49
2023-01-21T05:25:23.094Z,-3.52
2023-01-21T05:26:23.095Z,-3.52
2023-01-21T05:27:23.256Z,-3.52
2023-01-21T05:28:23.075Z,-3.53
2023-01-21T05:29:23.049Z,-3.54
2023-01-21T05:30:23.045Z,-3.56
2023-01-21T05:31:23.101Z,-3.54
2023-01-21T05:32:23.194Z,-3.54
2023-01-21T05:33:22.995Z,-3.56
2023-01-21T05:34:23.175Z,-3.56
2023-01-21T05:35:22.984Z,-3.57
2023-01-21T05:36:22.962Z,-3.57
2023-01-21T05:37:22.952Z,-3.59
2023-01-21T05:38:22.932Z,-3.60
2023-01-21T05:39:23.100Z,-3.59
2023-01-21T05:40:22.911Z,-3.62
2023-01-21T05:41:22.912Z,-3.63
2023-01-21T05:42:22.889Z,-3.62
2023-01-21T05:43:22.879Z,-3.63
2023-01-21T05:44:23.042Z,-3.64
2023-01-21T05:45:22.851Z,-3.64
2023-01-21T05:46:23.055Z,-3.66
2023-01-21T05:47:22.836Z,-3.66
2023-01-21T05:48:22.818Z,-3.66
2023-01-21T05:49:22.801Z,-3.66
2023-01-21T05:50:22.782Z,-3.67
2023-01-21T05:51:23.010Z,-3.67
2023-01-21T05:52:22.764Z,-3.66
2023-01-21T05:53:23.011Z,-3.69
2023-01-21T05:54:22.737Z,-3.67
2023-01-21T05:55:22.770Z,-3.66
2023-01-21T05:56:22.707Z,-3.64
2023-01-21T05:57:22.704Z,-3.64
2023-01-21T05:58:22.866Z,-3.64
2023-01-21T05:59:22.858Z,-3.64
2023-01-21T06:00:22.671Z,-3.67
2023-01-21T06:01:22.655Z,-3.66
2023-01-21T06:02:22.691Z,-3.67
2023-01-21T06:03:22.681Z,-3.66
2023-01-21T06:04:23.986Z,-3.67
2023-01-21T06:05:22.615Z,-3.66
2023-01-21T06:06:22.584Z,-3.66
2023-01-21T06:07:22.585Z,-3.66
2023-01-21T06:08:22.563Z,-3.66
2023-01-21T06:09:22.735Z,-3.67
2023-01-21T06:10:22.548Z,-3.67
2023-01-21T06:11:22.524Z,-3.66
2023-01-21T06:12:24.673Z,-3.69
2023-01-21T06:13:22.508Z,-3.69
2023-01-21T06:14:22.511Z,-3.71
2023-01-21T06:15:22.480Z,-3.69
2023-01-21T06:16:22.478Z,-3.72
2023-01-21T06:17:22.462Z,-3.72
2023-01-21T06:18:22.621Z,-3.75
2023-01-21T06:19:22.428Z,-3.75
2023-01-21T06:20:22.409Z,-3.72
2023-01-21T06:21:22.393Z,-3.76
2023-01-21T06:22:22.404Z,-3.78
2023-01-21T06:23:22.568Z,-3.76
2023-01-21T06:24:22.369Z,-3.78
2023-01-21T06:25:22.347Z,-3.76
2023-01-21T06:26:22.354Z,-3.78
2023-01-21T06:27:22.320Z,-3.76
2023-01-21T06:28:22.322Z,-3.78
2023-01-21T06:29:22.478Z,-3.79
2023-01-21T06:30:22.474Z,-3.79
2023-01-21T06:31:22.431Z,-3.79
2023-01-21T06:32:22.276Z,-3.79
2023-01-21T06:33:22.247Z,-3.81
2023-01-21T06:34:22.244Z,-3.82
2023-01-21T06:35:22.247Z,-3.83
2023-01-21T06:36:22.225Z,-3.82
2023-01-21T06:37:22.216Z,-3.85
2023-01-21T06:38:22.206Z,-3.83
2023-01-21T06:39:22.180Z,-3.79
2023-01-21T06:40:22.366Z,-3.76
2023-01-21T06:41:22.357Z,-3.75
2023-01-21T06:42:22.146Z,-3.72
2023-01-21T06:43:22.128Z,-3.67
2023-01-21T06:44:22.123Z,-3.63
2023-01-21T06:45:22.110Z,-3.60
2023-01-21T06:46:22.293Z,-3.60
2023-01-21T06:47:22.094Z,-3.60
2023-01-21T06:48:22.253Z,-3.62
2023-01-21T06:49:22.051Z,-3.60
2023-01-21T06:50:22.047Z,-3.60
2023-01-21T06:51:22.195Z,-3.60
2023-01-21T06:52:22.059Z,-3.57
2023-01-21T06:53:22.002Z,-3.56
2023-01-21T06:54:21.992Z,-3.54
2023-01-21T06:55:21.985Z,-3.54
2023-01-21T06:56:21.994Z,-3.54
2023-01-21T06:57:21.978Z,-3.52
2023-01-21T06:58:21.958Z,-3.49
2023-01-21T06:59:21.928Z,-3.49
2023-01-21T07:00:21.923Z,-3.46
2023-01-21T07:01:21.948Z,-3.45
2023-01-21T07:02:21.899Z,-3.45
2023-01-21T07:03:22.048Z,-3.43
2023-01-21T07:04:21.871Z,-3.45
2023-01-21T07:05:21.860Z,-3.42
2023-01-21T07:06:21.856Z,-3.39
2023-01-21T07:07:21.826Z,-3.36
2023-01-21T07:08:21.829Z,-3.35
2023-01-21T07:09:21.807Z,-3.33
2023-01-21T07:10:21.981Z,-3.31
2023-01-21T07:11:21.820Z,-3.30
2023-01-21T07:12:21.799Z,-3.28
2023-01-21T07:13:21.769Z,-3.25
2023-01-21T07:14:21.783Z,-3.27
2023-01-21T07:15:21.731Z,-3.25
2023-01-21T07:16:21.779Z,-3.23
2023-01-21T07:17:21.723Z,-3.25
2023-01-21T07:18:21.702Z,-3.25
2023-01-21T07:19:21.693Z,-3.25
2023-01-21T07:20:21.916Z,-3.23
2023-01-21T07:21:21.658Z,-3.21
2023-01-21T07:22:21.653Z,-3.20
2023-01-21T07:23:21.636Z,-3.15
2023-01-21T07:24:21.629Z,-3.10
2023-01-21T07:25:21.628Z,-3.09
2023-01-21T07:26:21.791Z,-3.07
2023-01-21T07:27:21.587Z,-3.05
2023-01-21T07:28:22.521Z,-3.03
2023-01-21T07:29:21.559Z,-3.02
2023-01-21T07:30:21.560Z,-3.03
2023-01-21T07:31:21.816Z,-3.02
2023-01-21T07:32:21.529Z,-2.99
2023-01-21T07:33:21.512Z,-2.97
2023-01-21T07:34:21.497Z,-2.92
2023-01-21T07:35:21.479Z,-2.92
2023-01-21T07:36:21.470Z,-2.94
2023-01-21T07:37:21.470Z,-2.92
2023-01-21T07:38:21.457Z,-2.96
2023-01-21T07:39:21.437Z,-2.96
2023-01-21T07:40:21.418Z,-2.94
2023-01-21T07:41:21.406Z,-2.96
2023-01-21T07:42:21.409Z,-2.94
2023-01-21T07:43:21.394Z,-2.94
2023-01-21T07:44:21.375Z,-2.94
2023-01-21T07:45:21.360Z,-2.91
2023-01-21T07:46:21.355Z,-2.89
2023-01-21T07:47:21.335Z,-2.89
2023-01-21T07:48:21.333Z,-2.88
2023-01-21T07:49:21.475Z,-2.86
2023-01-21T07:50:21.309Z,-2.85
2023-01-21T07:51:21.351Z,-2.84
2023-01-21T07:52:21.272Z,-2.82
2023-01-21T07:53:21.254Z,-2.82
2023-01-21T07:54:21.412Z,-2.79
2023-01-21T07:55:21.253Z,-2.77
2023-01-21T07:56:21.244Z,-2.74
2023-01-21T07:57:21.201Z,-2.71
2023-01-21T07:58:21.201Z,-2.68
2023-01-21T07:59:21.182Z,-2.66
2023-01-21T08:00:21.183Z,-2.64
2023-01-21T08:01:23.251Z,-2.61
2023-01-21T08:02:21.285Z,-2.60
2023-01-21T08:03:21.130Z,-2.58
2023-01-21T08:04:21.133Z,-2.55
2023-01-21T08:05:21.109Z,-2.52
2023-01-21T08:06:21.125Z,-2.49
2023-01-21T08:07:21.068Z,-2.48
2023-01-21T08:08:21.068Z,-2.45
2023-01-21T08:09:21.060Z,-2.40
2023-01-21T08:10:21.047Z,-2.40
2023-01-21T08:11:21.208Z,-2.39
2023-01-21T08:12:21.033Z,-2.35
2023-01-21T08:13:21.059Z,-2.34
2023-01-21T08:14:21.032Z,-2.32
2023-01-21T08:15:20.994Z,-2.29
2023-01-21T08:16:21.002Z,-2.27
2023-01-21T08:17:20.962Z,-2.26
2023-01-21T08:18:21.137Z,-2.23
2023-01-21T08:19:20.945Z,-2.23
2023-01-21T08:20:21.102Z,-2.23
2023-01-21T08:21:20.921Z,-2.20
2023-01-21T08:22:21.030Z,-2.20
2023-01-21T08:23:20.884Z,-2.16
2023-01-21T08:24:20.932Z,-2.15
2023-01-21T08:25:20.898Z,-2.12
2023-01-21T08:26:20.853Z,-2.08
2023-01-21T08:27:20.840Z,-2.03
2023-01-21T08:28:20.825Z,-2.02
2023-01-21T08:29:20.820Z,-2.00
2023-01-21T08:30:20.983Z,-1.98
2023-01-21T08:31:20.806Z,-1.98
2023-01-21T08:32:20.772Z,-1.97
2023-01-21T08:33:20.759Z,-1.95
2023-01-21T08:34:20.753Z,-1.94
2023-01-21T08:35:20.744Z,-1.91
2023-01-21T08:36:20.733Z,-1.90
2023-01-21T08:37:20.717Z,-1.88
2023-01-21T08:38:20.692Z,-1.85
2023-01-21T08:39:20.687Z,-1.84
2023-01-21T08:40:20.665Z,-1.82
2023-01-21T08:41:20.678Z,-1.79
2023-01-21T08:42:20.648Z,-1.77
2023-01-21T08:43:20.644Z,-1.73
2023-01-21T08:44:20.633Z,-1.72
2023-01-21T08:45:20.937Z,-1.70
2023-01-21T08:46:20.596Z,-1.69
2023-01-21T08:47:20.764Z,-1.67
2023-01-21T08:48:20.749Z,-1.66
2023-01-21T08:49:20.565Z,-1.64
2023-01-21T08:50:20.546Z,-1.62
2023-01-21T08:51:20.628Z,-1.61
2023-01-21T08:52:20.521Z,-1.58
2023-01-21T08:53:20.692Z,-1.55
2023-01-21T08:54:20.496Z,-1.54
2023-01-21T08:55:20.495Z,-1.51
2023-01-21T08:56:20.473Z,-1.48
2023-01-21T08:57:20.465Z,-1.48
2023-01-21T08:58:20.624Z,-1.46
2023-01-21T08:59:20.432Z,-1.45
2023-01-21T09:00:20.428Z,-1.43
2023-01-21T09:01:20.514Z,-1.43
2023-01-21T09:02:20.458Z,-1.40
2023-01-21T09:03:20.573Z,-1.40
2023-01-21T09:04:20.383Z,-1.37
2023-01-21T09:05:20.369Z,-1.38
2023-01-21T09:06:20.843Z,-1.35
2023-01-21T09:07:20.347Z,-1.33
2023-01-21T09:08:20.311Z,-1.31
2023-01-21T09:09:20.321Z,-1.30
2023-01-21T09:10:20.307Z,-1.30
2023-01-21T09:11:20.427Z,-1.30
2023-01-21T09:12:20.278Z,-1.27
2023-01-21T09:13:20.279Z,-1.25
2023-01-21T09:14:20.244Z,-1.25
2023-01-21T09:15:20.241Z,-1.23
2023-01-21T09:16:20.411Z,-1.22
2023-01-21T09:17:20.226Z,-1.20
2023-01-21T09:18:20.206Z,-1.19
2023-01-21T09:19:20.189Z,-1.19
2023-01-21T09:20:20.231Z,-1.17
2023-01-21T09:21:20.167Z,-1.16
2023-01-21T09:22:20.317Z,-1.15
2023-01-21T09:23:20.132Z,-1.13
2023-01-21T09:24:20.123Z,-1.13
2023-01-21T09:25:23.080Z,-1.10
2023-01-21T09:26:20.144Z,-1.07
2023-01-21T09:27:20.093Z,-1.07
2023-01-21T09:28:20.073Z,-1.04
2023-01-21T09:29:20.067Z,-1.02
2023-01-21T09:30:20.151Z,-1.01
2023-01-21T09:31:20.042Z,-0.99
2023-01-21T09:32:20.200Z,-0.99
2023-01-21T09:33:20.017Z,-0.97
2023-01-21T09:34:20.174Z,-0.97
2023-01-21T09:35:19.984Z,-0.94
2023-01-21T09:36:19.963Z,-0.92
2023-01-21T09:37:19.956Z,-0.91
2023-01-21T09:38:19.942Z,-0.89
2023-01-21T09:39:20.108Z,-0.86
2023-01-21T09:40:19.948Z,-0.85
2023-01-21T09:41:19.915Z,-0.85
2023-01-21T09:42:19.896Z,-0.82
2023-01-21T09:43:19.925Z,-0.82
2023-01-21T09:44:19.875Z,-0.79
2023-01-21T09:45:19.885Z,-0.78
2023-01-21T09:46:20.057Z,-0.76
2023-01-21T09:47:19.830Z,-0.73
2023-01-21T09:48:19.838Z,-0.70
2023-01-21T09:49:19.814Z,-0.69
2023-01-21T09:50:19.825Z,-0.67
2023-01-21T09:51:19.985Z,-0.65
2023-01-21T09:52:19.772Z,-0.65
2023-01-21T09:53:19.761Z,-0.62
2023-01-21T09:54:19.740Z,-0.61
2023-01-21T09:55:20.008Z,-0.60
2023-01-21T09:56:19.728Z,-0.58
2023-01-21T09:57:20.212Z,-0.58
2023-01-21T09:58:19.700Z,-0.57
2023-01-21T09:59:21.087Z,-0.55
2023-01-21T10:00:19.682Z,-0.54
2023-01-21T10:01:19.703Z,-0.52
2023-01-21T10:02:19.638Z,-0.51
2023-01-21T10:03:19.636Z,-0.49
2023-01-21T10:04:19.637Z,-0.47
2023-01-21T10:05:19.609Z,-0.46
2023-01-21T10:06:19.753Z,-0.44
2023-01-21T10:07:19.582Z,-0.43
2023-01-21T10:08:19.564Z,-0.43
2023-01-21T10:09:19.742Z,-0.40
2023-01-21T10:10:19.543Z,-0.40
2023-01-21T10:11:19.551Z,-0.37
2023-01-21T10:12:19.513Z,-0.37
2023-01-21T10:13:19.507Z,-0.34
2023-01-21T10:14:19.499Z,-0.31
2023-01-21T10:15:19.687Z,-0.33
2023-01-21T10:16:19.541Z,-0.29
2023-01-21T10:17:19.462Z,-0.28
2023-01-21T10:18:19.445Z,-0.26
2023-01-21T10:19:19.449Z,-0.25
2023-01-21T10:20:19.408Z,-0.22
2023-01-21T10:21:19.620Z,-0.21
2023-01-21T10:22:19.389Z,-0.19
2023-01-21T10:23:19.377Z,-0.19
2023-01-21T10:24:19.361Z,-0.18
2023-01-21T10:25:19.537Z,-0.16
2023-01-21T10:26:19.350Z,-0.15
2023-01-21T10:27:19.390Z,-0.14
2023-01-21T10:28:19.332Z,-0.14
2023-01-21T10:29:19.296Z,-0.14
2023-01-21T10:30:19.297Z,-0.10
2023-01-21T10:31:19.429Z,-0.10
2023-01-21T10:32:19.265Z,-0.08
2023-01-21T10:33:19.390Z,-0.08
2023-01-21T10:34:19.248Z,-0.07
2023-01-21T10:35:19.411Z,-0.04
2023-01-21T10:36:19.944Z,-0.07
2023-01-21T10:37:19.201Z,-0.05
2023-01-21T10:38:19.191Z,-0.04
2023-01-21T10:39:19.177Z,-0.03
2023-01-21T10:40:19.190Z,-0.04
2023-01-21T10:41:19.151Z,-0.03
2023-01-21T10:42:19.151Z,-0.01
2023-01-21T10:43:19.183Z,0.00
2023-01-21T10:44:19.129Z,0.02
2023-01-21T10:45:19.498Z,0.04
2023-01-21T10:46:19.152Z,0.02
2023-01-21T10:47:19.084Z,0.03
2023-01-21T10:48:19.062Z,0.03
2023-01-21T10:49:19.041Z,0.03
2023-01-21T10:50:19.212Z,0.04
2023-01-21T10:51:19.109Z,0.07
2023-01-21T10:52:19.012Z,0.10
2023-01-21T10:53:18.990Z,0.11
2023-01-21T10:54:20.928Z,0.13
2023-01-21T10:55:19.350Z,0.14
2023-01-21T10:56:18.960Z,0.15
2023-01-21T10:57:18.951Z,0.17
2023-01-21T10:58:18.939Z,0.18
2023-01-21T10:59:18.917Z,0.18
2023-01-21T11:00:19.120Z,0.20
2023-01-21T11:01:18.922Z,0.21
2023-01-21T11:02:18.923Z,0.24
2023-01-21T11:03:18.878Z,0.26
2023-01-21T11:04:18.875Z,0.28
2023-01-21T11:05:19.086Z,0.29
2023-01-21T11:06:18.851Z,0.28
2023-01-21T11:07:18.870Z,0.28
2023-01-21T11:08:18.843Z,0.28
2023-01-21T11:09:18.889Z,0.31
2023-01-21T11:10:18.854Z,0.32
2023-01-21T11:11:18.885Z,0.31
2023-01-21T11:12:18.764Z,0.35
2023-01-21T11:13:18.758Z,0.35
2023-01-21T11:14:21.161Z,0.35
2023-01-21T11:15:19.107Z,0.36
2023-01-21T11:16:18.735Z,0.36
2023-01-21T11:17:18.867Z,0.38
2023-01-21T11:18:18.686Z,0.38
2023-01-21T11:19:18.672Z,0.38
2023-01-21T11:20:21.519Z,0.39
2023-01-21T11:21:18.647Z,0.41
2023-01-21T11:22:18.671Z,0.42
2023-01-21T11:23:18.636Z,0.42
2023-01-21T11:24:18.806Z,0.42
2023-01-21T11:25:18.782Z,0.46
2023-01-21T11:26:18.580Z,0.47
2023-01-21T11:27:18.561Z,0.47
2023-01-21T11:28:18.564Z,0.47
2023-01-21T11:29:18.737Z,0.47
2023-01-21T11:30:37.327Z,0.49
2023-01-21T11:31:19.566Z,0.49
2023-01-21T11:32:18.587Z,0.50
2023-01-21T11:33:18.493Z,0.51
2023-01-21T11:34:18.488Z,0.51
2023-01-21T11:35:18.479Z,0.53
2023-01-21T11:36:18.471Z,0.57
2023-01-21T11:37:18.522Z,0.55
2023-01-21T11:38:18.428Z,0.58
2023-01-21T11:39:18.417Z,0.58
2023-01-21T11:40:20.788Z,0.60
2023-01-21T11:41:18.387Z,0.60
2023-01-21T11:42:18.380Z,0.60
2023-01-21T11:43:18.367Z,0.61
2023-01-21T11:44:18.409Z,0.65
2023-01-21T11:45:18.629Z,0.62
2023-01-21T11:46:18.333Z,0.62
2023-01-21T11:47:18.314Z,0.65
2023-01-21T11:48:18.308Z,0.65
2023-01-21T11:49:18.292Z,0.66
2023-01-21T11:50:18.536Z,0.66
2023-01-21T11:51:18.353Z,0.69
2023-01-21T11:52:18.253Z,0.69
2023-01-21T11:53:18.269Z,0.70
2023-01-21T11:54:18.224Z,0.70
2023-01-21T11:55:18.231Z,0.72
2023-01-21T11:56:18.202Z,0.73
2023-01-21T11:57:18.217Z,0.73
2023-01-21T11:58:18.182Z,0.73
2023-01-21T11:59:18.171Z,0.72
2023-01-21T12:00:18.414Z,0.73
2023-01-21T12:01:18.144Z,0.75
2023-01-21T12:02:18.366Z,0.75
2023-01-21T12:03:18.144Z,0.78
2023-01-21T12:04:18.112Z,0.76
2023-01-21T12:05:18.095Z,0.78
2023-01-21T12:06:18.076Z,0.79
2023-01-21T12:07:18.059Z,0.83
2023-01-21T12:08:18.223Z,0.79
2023-01-21T12:09:18.051Z,0.79
2023-01-21T12:10:18.416Z,0.78
2023-01-21T12:11:18.037Z,0.79
2023-01-21T12:12:18.002Z,0.79
2023-01-21T12:13:18.008Z,0.83
2023-01-21T12:14:17.981Z,0.83
2023-01-21T12:15:17.965Z,0.83
2023-01-21T12:16:18.005Z,0.83
2023-01-21T12:17:17.956Z,0.83
2023-01-21T12:18:17.944Z,0.83
2023-01-21T12:19:18.001Z,0.86
2023-01-21T12:20:18.164Z,0.86
2023-01-21T12:21:17.916Z,0.86
2023-01-21T12:22:17.876Z,0.88
2023-01-21T12:23:17.865Z,0.88
2023-01-21T12:24:17.845Z,0.90
2023-01-21T12:25:17.847Z,0.91
2023-01-21T12:26:17.823Z,0.91
2023-01-21T12:27:17.824Z,0.91
2023-01-21T12:28:17.812Z,0.93
2023-01-21T12:29:19.542Z,0.93
2023-01-21T12:30:18.144Z,0.96
2023-01-21T12:34:56.468Z,0.98
2023-01-21T12:35:56.449Z,0.97
2023-01-21T12:36:56.477Z,0.98
2023-01-21T12:38:17.447Z,0.97
2023-01-21T12:38:56.425Z,0.98
2023-01-21T12:39:56.456Z,1.00
2023-01-21T12:40:56.390Z,1.00
2023-01-21T12:41:56.381Z,1.00
2023-01-21T12:43:17.373Z,1.00
2023-01-21T12:43:56.513Z,1.00
2023-01-21T12:44:56.335Z,0.98
2023-01-21T12:45:56.357Z,0.98
2023-01-21T12:46:56.376Z,0.98
2023-01-21T12:47:56.293Z,0.98
2023-01-21T12:48:56.304Z,0.98
2023-01-21T12:49:56.277Z,0.97
2023-01-21T12:50:56.333Z,0.97
2023-01-21T12:51:56.253Z,0.96
2023-01-21T12:52:56.246Z,0.96
2023-01-21T12:53:56.401Z,0.94
2023-01-21T12:54:56.209Z,0.96
2023-01-21T12:55:56.214Z,0.96
2023-01-21T12:56:56.192Z,0.96
2023-01-21T12:57:56.173Z,0.97
2023-01-21T12:58:56.253Z,0.96
2023-01-21T12:59:56.150Z,0.97
2023-01-21T13:00:56.212Z,0.98